createdAt,value
2022-10-17T00:00:46.619Z,99.90
2022-10-17T00:03:13.586Z,99.90
2022-10-17T00:05:42.843Z,99.90
2022-10-17T00:08:11.346Z,99.90
2022-10-17T00:10:38.886Z,99.90
2022-10-17T00:13:06.601Z,99.90
2022-10-17T00:15:33.685Z,99.90
2022-10-17T00:18:02.099Z,99.90
2022-10-17T00:20:30.473Z,99.90
2022-10-17T00:22:57.674Z,99.90
2022-10-17T00:25:24.464Z,99.90
2022-10-17T00:27:51.466Z,99.90
2022-10-17T00:30:18.385Z,99.90
2022-10-17T00:32:45.372Z,99.90
2022-10-17T00:35:12.366Z,99.90
2022-10-17T00:37:39.358Z,99.90
2022-10-17T00:40:07.389Z,99.90
2022-10-17T00:42:34.261Z,99.90
2022-10-17T00:45:12.994Z,99.90
2022-10-17T00:47:40.845Z,99.90
2022-10-17T00:50:08.877Z,99.90
2022-10-17T00:52:36.194Z,99.90
2022-10-17T00:55:10.579Z,99.90
2022-10-17T00:57:38.614Z,99.90
2022-10-17T01:00:09.073Z,99.90
2022-10-17T01:02:36.361Z,99.90
2022-10-17T01:05:04.494Z,99.90
2022-10-17T01:07:34.944Z,99.90
2022-10-17T01:10:05.465Z,99.90
2022-10-17T01:12:52.676Z,99.90
2022-10-17T01:15:29.253Z,99.90
2022-10-17T01:18:15.784Z,99.90
2022-10-17T01:21:06.714Z,99.90
2022-10-17T01:23:45.398Z,99.90
2022-10-17T01:26:52.712Z,99.90
2022-10-17T01:29:30.595Z,99.90
2022-10-17T01:32:18.823Z,99.90
2022-10-17T01:35:12.095Z,99.90
2022-10-17T01:37:56.998Z,99.90
2022-10-17T01:40:39.567Z,99.90
2022-10-17T01:43:13.719Z,99.90
2022-10-17T01:45:57.216Z,99.90
2022-10-17T01:48:29.374Z,99.90
2022-10-17T01:51:06.766Z,99.90
2022-10-17T01:53:54.687Z,99.90
2022-10-17T01:56:24.805Z,99.90
2022-10-17T01:58:57.476Z,99.90
2022-10-17T02:01:26.735Z,99.90
2022-10-17T02:03:54.586Z,99.90
2022-10-17T02:06:21.393Z,99.90
2022-10-17T02:08:50.962Z,99.90
2022-10-17T02:11:23.271Z,99.90
2022-10-17T02:14:27.752Z,99.90
2022-10-17T02:17:19.543Z,99.90
2022-10-17T02:20:18.865Z,99.90
2022-10-17T02:22:49.460Z,99.90
2022-10-17T02:25:55.251Z,99.90
2022-10-17T02:28:57.569Z,99.90
2022-10-17T02:31:33.690Z,99.90
2022-10-17T02:34:03.841Z,99.90
2022-10-17T02:36:38.973Z,99.90
2022-10-17T02:39:08.428Z,99.90
2022-10-17T02:41:37.240Z,99.90
2022-10-17T02:44:05.704Z,99.90
2022-10-17T02:46:33.652Z,99.90
2022-10-17T02:49:13.984Z,99.90
2022-10-17T02:52:03.977Z,99.90
2022-10-17T02:54:56.998Z,99.90
2022-10-17T02:57:48.044Z,99.90
2022-10-17T03:00:16.975Z,99.90
2022-10-17T03:02:46.671Z,99.90
2022-10-17T03:05:20.164Z,99.90
2022-10-17T03:07:47.425Z,99.90
2022-10-17T03:10:14.443Z,99.90
2022-10-17T03:12:41.290Z,99.90
2022-10-17T03:15:08.586Z,99.90
2022-10-17T03:17:36.104Z,99.90
2022-10-17T03:20:03.455Z,99.90
2022-10-17T03:22:30.633Z,99.90
2022-10-17T03:24:58.005Z,99.90
2022-10-17T03:27:25.457Z,99.90
2022-10-17T03:29:52.304Z,99.90
2022-10-17T03:32:19.179Z,99.90
2022-10-17T03:34:45.939Z,99.90
2022-10-17T03:37:12.791Z,99.90
2022-10-17T03:39:39.600Z,99.90
2022-10-17T03:42:06.385Z,99.90
2022-10-17T03:44:33.153Z,99.90
2022-10-17T03:46:59.953Z,99.90
2022-10-17T03:49:26.699Z,99.90
2022-10-17T03:51:53.557Z,99.90
2022-10-17T03:54:20.313Z,99.90
2022-10-17T03:56:47.204Z,99.90
2022-10-17T03:59:15.554Z,99.90
2022-10-17T04:01:42.829Z,99.90
2022-10-17T04:04:09.803Z,99.90
2022-10-17T04:06:37.854Z,99.90
2022-10-17T04:09:06.327Z,99.90
2022-10-17T04:11:33.291Z,99.90
2022-10-17T04:14:00.189Z,99.90
2022-10-17T04:16:27.678Z,99.90
2022-10-17T04:18:56.151Z,99.90
2022-10-17T04:21:25.241Z,99.90
2022-10-17T04:24:00.146Z,99.90
2022-10-17T04:26:28.009Z,99.90
2022-10-17T04:28:54.848Z,99.90
2022-10-17T04:31:21.844Z,99.90
2022-10-17T04:33:50.280Z,99.90
2022-10-17T04:36:19.672Z,99.90
2022-10-17T04:38:47.135Z,99.90
2022-10-17T04:41:16.438Z,99.90
2022-10-17T04:43:45.590Z,99.90
2022-10-17T04:46:15.802Z,99.90
2022-10-17T04:48:43.023Z,99.90
2022-10-17T04:51:16.285Z,99.90
2022-10-17T04:53:44.408Z,99.90
2022-10-17T04:56:16.951Z,99.90
2022-10-17T04:58:44.720Z,99.90
2022-10-17T05:01:17.536Z,99.90
2022-10-17T05:03:45.034Z,99.90
2022-10-17T05:06:17.961Z,99.90
2022-10-17T05:08:45.525Z,99.90
2022-10-17T05:11:19.737Z,99.90
2022-10-17T05:14:00.469Z,99.90
2022-10-17T05:16:28.864Z,99.90
2022-10-17T05:18:57.347Z,99.90
2022-10-17T05:21:26.371Z,99.90
2022-10-17T05:23:53.677Z,99.90
2022-10-17T05:26:21.556Z,99.90
2022-10-17T05:28:48.531Z,99.90
2022-10-17T05:31:15.419Z,99.90
2022-10-17T05:33:42.280Z,99.90
2022-10-17T05:36:09.771Z,99.90
2022-10-17T05:38:36.667Z,99.90
2022-10-17T05:41:05.273Z,99.90
2022-10-17T05:43:33.116Z,99.90
2022-10-17T05:46:03.926Z,99.90
2022-10-17T05:48:30.771Z,99.90
2022-10-17T05:50:59.511Z,99.90
2022-10-17T05:53:26.555Z,99.90
2022-10-17T05:56:00.921Z,99.90
2022-10-17T06:01:15.495Z,99.90
2022-10-17T06:03:42.511Z,99.90
2022-10-17T06:06:12.081Z,99.90
2022-10-17T06:08:39.401Z,99.90
2022-10-17T06:11:09.897Z,99.90
2022-10-17T06:13:37.963Z,99.90
2022-10-17T06:16:05.142Z,99.90
2022-10-17T06:18:32.421Z,99.90
2022-10-17T06:21:10.531Z,99.90
2022-10-17T06:23:37.465Z,99.90
2022-10-17T06:26:06.067Z,99.90
2022-10-17T06:28:33.601Z,99.90
2022-10-17T06:31:04.102Z,99.90
2022-10-17T06:33:31.097Z,99.90
2022-10-17T06:35:57.984Z,99.90
2022-10-17T06:38:24.926Z,99.90
2022-10-17T06:40:53.901Z,99.90
2022-10-17T06:43:25.580Z,99.90
2022-10-17T06:45:54.887Z,99.90
2022-10-17T06:48:21.886Z,99.90
2022-10-17T06:50:48.898Z,99.90
2022-10-17T06:53:15.671Z,99.90
2022-10-17T06:55:43.045Z,99.90
2022-10-17T06:58:09.886Z,99.90
2022-10-17T07:00:37.164Z,99.90
2022-10-17T07:03:04.185Z,99.90
2022-10-17T07:05:30.991Z,99.90
2022-10-17T07:07:57.856Z,99.90
2022-10-17T07:10:24.616Z,99.90
2022-10-17T07:12:51.390Z,99.90
2022-10-17T07:15:18.264Z,99.90
2022-10-17T07:17:50.341Z,99.90
2022-10-17T07:20:17.244Z,99.90
2022-10-17T07:22:44.251Z,99.90
2022-10-17T07:25:11.109Z,99.90
2022-10-17T07:27:38.115Z,99.90
2022-10-17T07:30:05.427Z,99.90
2022-10-17T07:32:32.205Z,99.90
2022-10-17T07:34:59.005Z,99.90
2022-10-17T07:37:25.868Z,99.90
2022-10-17T07:39:52.651Z,99.90
2022-10-17T07:42:19.460Z,99.90
2022-10-17T07:44:47.601Z,99.90
2022-10-17T07:47:14.453Z,99.90
2022-10-17T07:49:42.660Z,99.90
2022-10-17T07:52:14.193Z,99.90
2022-10-17T07:54:41.499Z,99.90
2022-10-17T07:57:08.898Z,99.90
2022-10-17T07:59:38.218Z,99.90
2022-10-17T08:02:07.129Z,99.90
2022-10-17T08:04:36.338Z,99.90
2022-10-17T08:07:18.306Z,96.40
2022-10-17T08:09:48.274Z,96.00
2022-10-17T08:12:15.471Z,98.20
2022-10-17T08:14:43.211Z,97.60
2022-10-17T08:17:10.493Z,96.00
2022-10-17T08:19:40.333Z,95.40
2022-10-17T08:22:07.709Z,68.10
2022-10-17T08:24:34.793Z,39.00
2022-10-17T08:27:01.654Z,43.10
2022-10-17T08:29:28.614Z,45.10
2022-10-17T08:32:00.183Z,55.60
2022-10-17T08:34:28.455Z,62.80
2022-10-17T08:36:55.293Z,72.10
2022-10-17T08:39:22.174Z,79.90
2022-10-17T08:42:11.773Z,82.00
2022-10-17T08:44:57.730Z,83.80
2022-10-17T08:47:35.157Z,82.10
2022-10-17T08:50:05.779Z,63.70
2022-10-17T08:52:44.810Z,69.10
2022-10-17T08:55:31.419Z,72.70
2022-10-17T08:57:58.178Z,83.60
2022-10-17T09:00:26.460Z,83.90
2022-10-17T09:03:16.140Z,83.80
2022-10-17T09:06:08.072Z,83.90
2022-10-17T09:08:47.178Z,90.10
2022-10-17T09:11:38.647Z,90.90
2022-10-17T09:14:32.971Z,94.30
2022-10-17T09:17:15.504Z,98.70
2022-10-17T09:19:59.650Z,99.40
2022-10-17T09:22:32.225Z,99.90
2022-10-17T09:25:03.492Z,99.60
2022-10-17T09:27:41.365Z,92.20
2022-10-17T09:30:46.239Z,95.50
2022-10-17T09:33:34.382Z,85.60
2022-10-17T09:36:13.065Z,39.00
2022-10-17T09:38:49.538Z,7.30
2022-10-17T09:41:44.088Z,1.00
2022-10-17T09:44:14.224Z,1.00
2022-10-17T09:46:43.651Z,1.00
2022-10-17T09:49:19.896Z,1.00
2022-10-17T09:51:48.660Z,1.00
2022-10-17T09:54:23.138Z,1.00
2022-10-17T09:57:05.999Z,1.00
2022-10-17T09:59:34.578Z,1.00
2022-10-17T10:02:17.986Z,1.00
2022-10-17T10:05:16.505Z,1.00
2022-10-17T10:07:59.577Z,1.00
2022-10-17T10:10:28.512Z,1.00
2022-10-17T10:13:22.480Z,1.00
2022-10-17T10:15:50.787Z,1.00
2022-10-17T10:18:26.980Z,1.00
2022-10-17T10:21:10.873Z,1.00
2022-10-17T10:23:40.458Z,1.00
2022-10-17T10:26:25.963Z,1.00
2022-10-17T10:28:55.076Z,1.00
2022-10-17T10:31:38.127Z,1.00
2022-10-17T10:34:27.141Z,1.00
2022-10-17T10:37:02.753Z,1.00
2022-10-17T10:39:34.690Z,1.00
2022-10-17T10:42:04.268Z,1.00
2022-10-17T10:44:33.029Z,1.00
2022-10-17T10:47:14.298Z,1.00
2022-10-17T10:49:41.776Z,1.00
2022-10-17T10:52:32.029Z,1.00
2022-10-17T10:55:24.896Z,1.00
2022-10-17T10:57:56.811Z,1.00
2022-10-17T11:00:27.808Z,1.00
2022-10-17T11:03:16.938Z,1.00
2022-10-17T11:05:50.848Z,1.00
2022-10-17T11:08:34.994Z,1.00
2022-10-17T11:11:17.813Z,1.00
2022-10-17T11:13:53.373Z,1.00
2022-10-17T11:16:48.464Z,1.00
2022-10-17T11:19:25.529Z,1.00
2022-10-17T11:22:09.144Z,1.00
2022-10-17T11:25:19.341Z,1.00
2022-10-17T11:27:46.155Z,1.00
2022-10-17T11:30:15.229Z,1.00
2022-10-17T11:32:59.778Z,1.00
2022-10-17T11:35:38.329Z,1.00
2022-10-17T11:38:40.767Z,1.00
2022-10-17T11:41:12.947Z,1.00
2022-10-17T11:43:55.142Z,1.00
2022-10-17T11:46:24.484Z,1.00
2022-10-17T11:49:20.219Z,1.00
2022-10-17T11:52:06.016Z,1.00
2022-10-17T11:54:32.733Z,1.00
2022-10-17T11:57:18.107Z,1.00
2022-10-17T11:59:59.355Z,1.00
2022-10-17T12:02:37.966Z,1.00
2022-10-17T12:05:22.838Z,1.00
2022-10-17T12:08:18.622Z,1.00
2022-10-17T12:11:03.980Z,1.00
2022-10-17T12:13:35.078Z,1.00
2022-10-17T12:16:20.258Z,1.00
2022-10-17T12:19:06.977Z,1.00
2022-10-17T12:22:03.550Z,1.00
2022-10-17T12:24:44.016Z,1.00
2022-10-17T12:27:31.944Z,1.00
2022-10-17T12:30:16.247Z,1.00
2022-10-17T12:33:06.649Z,1.00
2022-10-17T12:35:35.856Z,1.00
2022-10-17T12:38:17.770Z,1.00
2022-10-17T12:40:48.671Z,1.00
2022-10-17T12:43:15.893Z,1.00
2022-10-17T12:45:48.673Z,1.00
2022-10-17T12:48:33.505Z,1.00
2022-10-17T12:54:12.310Z,1.00
2022-10-17T12:56:42.874Z,2.90
2022-10-17T12:59:28.586Z,5.00
2022-10-17T13:02:01.776Z,12.60
2022-10-17T13:04:30.588Z,20.10
2022-10-17T13:06:59.228Z,35.60
2022-10-17T13:09:36.679Z,89.10
2022-10-17T13:12:06.690Z,99.90
2022-10-17T13:14:35.064Z,99.90
2022-10-17T13:17:05.454Z,99.90
2022-10-17T13:19:43.735Z,99.90
2022-10-17T13:22:24.337Z,99.90
2022-10-17T13:24:53.483Z,99.90
2022-10-17T13:27:29.765Z,99.90
2022-10-17T13:30:02.971Z,99.90
2022-10-17T13:32:38.490Z,99.90
2022-10-17T13:35:12.797Z,99.90
2022-10-17T13:37:42.676Z,99.90
2022-10-17T13:40:40.817Z,99.90
2022-10-17T13:43:06.023Z,99.90
2022-10-17T13:45:37.048Z,99.90
2022-10-17T13:48:19.510Z,99.90
2022-10-17T13:50:50.700Z,1.00
2022-10-17T13:53:39.861Z,1.00
2022-10-17T13:56:28.869Z,1.00
2022-10-17T13:59:00.077Z,1.00
2022-10-17T14:01:28.725Z,1.00
2022-10-17T14:04:07.874Z,1.00
2022-10-17T14:06:49.367Z,1.00
2022-10-17T14:09:20.911Z,1.00
2022-10-17T14:12:01.587Z,1.00
2022-10-17T14:14:30.423Z,1.00
2022-10-17T14:17:15.364Z,1.00
2022-10-17T14:19:43.100Z,1.00
2022-10-17T14:22:23.213Z,1.00
2022-10-17T14:24:54.246Z,1.00
2022-10-17T14:27:30.494Z,1.00
2022-10-17T14:30:03.693Z,1.00
2022-10-17T14:35:24.346Z,1.00
2022-10-17T14:37:54.011Z,1.00
2022-10-17T14:40:23.852Z,1.00
2022-10-17T14:42:53.305Z,1.00
2022-10-17T14:45:27.562Z,1.00
2022-10-17T14:48:02.085Z,1.00
2022-10-17T14:50:32.068Z,1.00
2022-10-17T14:53:11.175Z,1.00
2022-10-17T14:55:56.054Z,1.00
2022-10-17T14:58:28.087Z,1.00
2022-10-17T15:00:56.582Z,1.00
2022-10-17T15:03:24.268Z,1.00
2022-10-17T15:05:52.503Z,1.00
2022-10-17T15:08:21.136Z,1.00
2022-10-17T15:10:49.577Z,1.00
2022-10-17T15:13:27.787Z,1.00
2022-10-17T15:15:55.836Z,1.00
2022-10-17T15:18:22.734Z,1.00
2022-10-17T15:20:55.465Z,1.00
2022-10-17T15:23:32.214Z,1.00
2022-10-17T15:25:59.142Z,1.00
2022-10-17T15:28:27.451Z,1.00
2022-10-17T15:30:54.391Z,1.00
2022-10-17T15:33:21.199Z,1.00
2022-10-17T15:35:48.642Z,1.00
2022-10-17T15:38:18.135Z,1.00
2022-10-17T15:40:48.805Z,1.00
2022-10-17T15:43:19.662Z,1.00
2022-10-17T15:45:47.214Z,1.00
2022-10-17T15:48:23.786Z,1.00
2022-10-17T15:50:50.638Z,1.00
2022-10-17T15:53:17.604Z,1.00
2022-10-17T15:55:44.485Z,1.00
2022-10-17T15:58:16.432Z,1.00
2022-10-17T16:00:45.399Z,1.00
2022-10-17T16:03:15.045Z,1.00
2022-10-17T16:05:41.914Z,1.00
2022-10-17T16:08:08.890Z,1.00
2022-10-17T16:10:39.367Z,1.00
2022-10-17T16:13:06.434Z,1.00
2022-10-17T16:15:34.172Z,1.00
2022-10-17T16:18:04.367Z,1.00
2022-10-17T16:20:34.324Z,1.00
2022-10-17T16:23:03.369Z,1.00
2022-10-17T16:25:31.663Z,1.00
2022-10-17T16:28:01.244Z,1.00
2022-10-17T16:30:30.318Z,1.00
2022-10-17T16:32:57.178Z,1.00
2022-10-17T16:35:33.129Z,3.00
2022-10-17T16:38:04.252Z,13.50
2022-10-17T16:40:31.214Z,13.40
2022-10-17T16:42:58.392Z,18.50
2022-10-17T16:45:25.642Z,23.50
2022-10-17T16:47:53.475Z,34.10
2022-10-17T16:50:21.021Z,46.20
2022-10-17T16:52:47.973Z,46.20
2022-10-17T16:55:15.204Z,46.30
2022-10-17T17:00:12.754Z,46.30
2022-10-17T17:02:39.649Z,51.10
2022-10-17T17:05:07.203Z,46.20
2022-10-17T17:07:34.196Z,46.10
2022-10-17T17:10:01.175Z,46.20
2022-10-17T17:12:28.230Z,50.20
2022-10-17T17:14:55.213Z,57.90
2022-10-17T17:17:30.686Z,54.50
2022-10-17T17:20:10.736Z,63.30
2022-10-17T17:22:37.811Z,57.80
2022-10-17T17:25:05.178Z,60.30
2022-10-17T17:27:32.566Z,66.00
2022-10-17T17:29:59.677Z,57.70
2022-10-17T17:32:26.875Z,55.30
2022-10-17T17:34:54.452Z,50.10
2022-10-17T17:37:21.244Z,53.40
2022-10-17T17:39:48.216Z,61.40
2022-10-17T17:42:17.675Z,57.70
2022-10-17T17:44:45.188Z,60.20
2022-10-17T17:47:12.186Z,64.90
2022-10-17T17:49:39.096Z,57.60
2022-10-17T17:52:06.211Z,59.30
2022-10-17T17:54:37.178Z,57.60
2022-10-17T17:57:06.984Z,51.70
2022-10-17T17:59:34.090Z,54.90
2022-10-17T18:02:10.901Z,57.50
2022-10-17T18:04:37.876Z,68.40
2022-10-17T18:07:04.855Z,62.90
2022-10-17T18:09:31.697Z,64.90
2022-10-17T18:11:58.671Z,66.70
2022-10-17T18:14:25.650Z,68.40
2022-10-17T18:16:52.824Z,73.30
2022-10-17T18:19:19.881Z,76.30
2022-10-17T18:21:51.257Z,75.00
2022-10-17T18:24:18.619Z,68.40
2022-10-17T18:26:46.088Z,68.40
2022-10-17T18:29:13.034Z,68.30
2022-10-17T18:31:40.611Z,68.40
2022-10-17T18:34:07.642Z,63.00
2022-10-17T18:36:35.781Z,57.80
2022-10-17T18:39:03.722Z,57.30
2022-10-17T18:41:31.903Z,55.00
2022-10-17T18:44:01.542Z,57.40
2022-10-17T18:46:36.380Z,55.30
2022-10-17T18:49:03.610Z,48.10
2022-10-17T18:51:30.675Z,46.70
2022-10-17T18:53:58.788Z,51.00
2022-10-17T18:56:26.267Z,54.30
2022-10-17T18:58:53.865Z,57.30
2022-10-17T19:01:24.502Z,50.40
2022-10-17T19:03:54.395Z,51.50
2022-10-17T19:06:23.522Z,50.10
2022-10-17T19:08:50.523Z,57.20
2022-10-17T19:11:23.033Z,57.20
2022-10-17T19:13:50.139Z,58.00
2022-10-17T19:16:23.083Z,59.60
2022-10-17T19:19:01.700Z,62.80
2022-10-17T19:21:28.577Z,57.10
2022-10-17T19:24:02.396Z,57.10
2022-10-17T19:26:30.850Z,57.00
2022-10-17T19:29:00.454Z,62.50
2022-10-17T19:31:29.606Z,67.80
2022-10-17T19:33:57.020Z,73.30
2022-10-17T19:36:30.502Z,81.60
2022-10-17T19:39:05.493Z,86.00
2022-10-17T19:41:32.958Z,91.30
2022-10-17T19:44:00.762Z,95.90
2022-10-17T19:46:30.053Z,95.80
2022-10-17T19:48:57.613Z,97.90
2022-10-17T19:51:25.376Z,97.90
2022-10-17T19:53:53.782Z,97.90
2022-10-17T19:56:22.337Z,99.10
2022-10-17T19:58:50.481Z,98.30
2022-10-17T20:01:20.244Z,98.20
2022-10-17T20:03:47.413Z,98.90
2022-10-17T20:06:14.887Z,97.80
2022-10-17T20:08:42.486Z,99.70
2022-10-17T20:11:22.793Z,99.90
2022-10-17T20:13:50.326Z,99.90
2022-10-17T20:16:23.559Z,98.50
2022-10-17T20:18:51.806Z,97.90
2022-10-17T20:21:24.904Z,91.40
2022-10-17T20:23:51.990Z,90.40
2022-10-17T20:26:38.580Z,94.80
2022-10-17T20:29:11.837Z,91.80
2022-10-17T20:31:39.922Z,92.60
2022-10-17T20:34:06.856Z,90.80
2022-10-17T20:36:37.032Z,92.50
2022-10-17T20:39:05.440Z,93.50
2022-10-17T20:41:32.320Z,91.30
2022-10-17T20:43:59.377Z,93.50
2022-10-17T20:46:52.747Z,93.50
2022-10-17T20:49:19.725Z,94.50
2022-10-17T20:51:46.782Z,97.80
2022-10-17T20:54:14.024Z,99.90
2022-10-17T20:56:40.985Z,99.90
2022-10-17T20:59:12.315Z,99.90
2022-10-17T21:01:39.351Z,99.90
2022-10-17T21:04:33.312Z,99.90
2022-10-17T21:06:53.672Z,99.90
2022-10-17T21:09:20.973Z,99.90
2022-10-17T21:11:51.206Z,99.90
2022-10-17T21:14:18.678Z,99.90
2022-10-17T21:16:45.846Z,99.90
2022-10-17T21:19:13.315Z,99.90
2022-10-17T21:21:43.956Z,99.90
2022-10-17T21:24:17.862Z,99.90
2022-10-17T21:26:45.672Z,99.90
2022-10-17T21:29:13.931Z,99.90
2022-10-17T21:31:43.371Z,99.90
2022-10-17T21:34:15.782Z,99.90
2022-10-17T21:36:43.429Z,99.90
2022-10-17T21:39:11.835Z,99.90
2022-10-17T21:41:39.000Z,99.90
2022-10-17T21:44:08.408Z,99.90
2022-10-17T21:46:35.264Z,99.90
2022-10-17T21:49:05.635Z,99.90
2022-10-17T21:51:32.464Z,99.90
2022-10-17T21:54:04.427Z,97.80
2022-10-17T21:56:34.722Z,99.90
2022-10-17T21:59:02.016Z,99.90
2022-10-17T22:01:31.847Z,99.90
2022-10-17T22:04:01.172Z,99.90
2022-10-17T22:06:39.657Z,99.90
2022-10-17T22:09:11.828Z,99.90
2022-10-17T22:11:39.144Z,99.90
2022-10-17T22:14:11.211Z,99.90
2022-10-17T22:16:38.674Z,99.90
2022-10-17T22:19:07.039Z,99.90
2022-10-17T22:21:35.762Z,99.90
2022-10-17T22:24:05.662Z,99.90
2022-10-17T22:26:34.845Z,99.90
2022-10-17T22:29:02.120Z,99.90
2022-10-17T22:31:29.039Z,99.90
2022-10-17T22:33:56.508Z,99.90
2022-10-17T22:36:23.402Z,99.90
2022-10-17T22:38:50.232Z,99.90
2022-10-17T22:41:17.363Z,99.90
2022-10-17T22:43:44.265Z,99.90
2022-10-17T22:46:13.719Z,99.90
2022-10-17T22:48:40.764Z,99.90
2022-10-17T22:51:07.980Z,99.90
2022-10-17T22:53:35.939Z,99.90
2022-10-17T22:56:10.218Z,99.90
2022-10-17T22:58:37.653Z,99.90
2022-10-17T23:01:06.200Z,99.90
2022-10-17T23:03:33.700Z,99.90
2022-10-17T23:06:01.218Z,99.90
2022-10-17T23:08:28.440Z,99.90
2022-10-17T23:10:55.299Z,99.90
2022-10-17T23:13:22.458Z,99.90
2022-10-17T23:15:56.718Z,99.90
2022-10-17T23:18:25.895Z,99.90
2022-10-17T23:20:53.113Z,99.90
2022-10-17T23:23:20.699Z,99.90
2022-10-17T23:25:48.889Z,99.90
2022-10-17T23:28:16.570Z,99.90
2022-10-17T23:30:43.430Z,99.90
2022-10-17T23:33:13.170Z,99.90
2022-10-17T23:35:40.550Z,99.90
2022-10-17T23:38:07.757Z,99.90
2022-10-17T23:40:35.329Z,99.90
2022-10-17T23:43:03.670Z,99.90
2022-10-17T23:45:34.755Z,99.90
2022-10-17T23:48:05.032Z,99.90
2022-10-17T23:50:31.897Z,99.90
2022-10-17T23:52:58.688Z,99.90
2022-10-17T23:55:25.561Z,99.90
2022-10-17T23:57:52.408Z,99.90
